»·PEaware :: N1980Z KEGE-KAPA

N1980Z :: KEGE-KAPA

FLIGHT INFORMATION

Flight Status: Arrived
Operator: Privately registered:
United States
More flights under this callsign
Pilot: Eric M. (17640)
Aircraft: CESSNA 550 CITATION 2/S2/BRAVO
(C550)
More flights by this aircraft type
Origin: KEGE Eagle Co Regl
United States
Destination: KAPA Centennial
United States
More flights between these airports :: More routes between these airports
Route: GYPSUM6 RLG TOMSN TOMSN7
File this flight plan on PilotEdge
Remarks:
Altitude:
(Current/Filed)
23,000ft
Speed:
(Current/Filed)
300kts
Departed: 11-Jan-19 06:53 PM
Arrived: 11-Jan-19 07:40 PM
Distance/Time
Traveled:
96nm/0:47
Distance/Time
To Go:
Arrived

Flight Plot

Page will automatically refresh every two minutes.

Flight plan parsing failed; only flown route is shown


Map Options




Map Legend


Flown Route
Filed Route
Departure Airport
Arrival Airport
Navaid (VOR, NDB)
Fix

Horizontal Profiles

Position Reports

Time Latitude Longitude Heading Altitude Ground
Speed
11-Jan-19 18:30 39.642072 -106.904469 348 6550ft 0kts
11-Jan-19 18:31 39.642072 -106.904469 348 6550ft 0kts
11-Jan-19 18:32 39.642072 -106.904469 348 6550ft 0kts
11-Jan-19 18:33 39.642072 -106.904469 348 6550ft 0kts
11-Jan-19 18:34 39.642072 -106.904469 348 6550ft 0kts
11-Jan-19 18:35 39.642072 -106.904469 348 6550ft 0kts
11-Jan-19 18:36 39.642072 -106.904469 348 6550ft 0kts
11-Jan-19 18:37 39.642072 -106.904469 348 6550ft 0kts
11-Jan-19 18:38 39.642072 -106.904469 348 6550ft 0kts
11-Jan-19 18:39 39.642072 -106.904469 348 6550ft 0kts
11-Jan-19 18:40 39.642072 -106.904469 348 6550ft 0kts
11-Jan-19 18:41 39.642072 -106.904469 348 6550ft 0kts
11-Jan-19 18:42 39.642072 -106.904469 348 6550ft 0kts
11-Jan-19 18:43 39.642072 -106.904469 348 6550ft 0kts
11-Jan-19 18:44 39.642072 -106.904469 348 6550ft 0kts
11-Jan-19 18:45 39.642072 -106.904469 348 6550ft 0kts
11-Jan-19 18:46 39.642072 -106.904469 348 6550ft 0kts
11-Jan-19 18:47 39.642494 -106.903328 72 6550ft 2kts
11-Jan-19 18:48 39.642645 -106.903300 321 6550ft 0kts
11-Jan-19 18:49 39.642956 -106.903577 65 6550ft 19kts
11-Jan-19 18:50 39.643447 -106.900323 32 6550ft 0kts
11-Jan-19 18:51 39.644420 -106.900638 265 6550ft 0kts
11-Jan-19 18:52 39.642994 -106.918878 270 6978ft 152kts
11-Jan-19 18:53 39.648492 -106.977429 239 9251ft 195kts
11-Jan-19 18:54 39.637116 -107.041434 331 11303ft 204kts
11-Jan-19 18:55 39.689866 -107.053062 336 13250ft 198kts
11-Jan-19 18:56 39.741298 -107.081454 355 15239ft 227kts
11-Jan-19 18:57 39.786539 -107.030532 63 17159ft 251kts
11-Jan-19 18:58 39.810923 -106.964597 64 18766ft 254kts
11-Jan-19 18:59 39.844376 -106.873628 65 20964ft 255kts
11-Jan-19 19:00 39.876651 -106.785631 65 22703ft 271kts
11-Jan-19 19:01 39.912067 -106.689282 65 22721ft 320kts
11-Jan-19 19:02 39.951341 -106.582282 65 22720ft 340kts
11-Jan-19 19:03 39.992632 -106.470382 65 22721ft 349kts
11-Jan-19 19:04 40.034201 -106.355183 66 22239ft 366kts
11-Jan-19 19:05 40.077012 -106.233305 67 20991ft 379kts
11-Jan-19 19:06 40.118877 -106.115156 66 20047ft 377kts
11-Jan-19 19:07 40.161110 -105.996202 66 19082ft 376kts
11-Jan-19 19:08 40.199794 -105.886650 66 18120ft 378kts
11-Jan-19 19:09 40.236546 -105.781666 65 17267ft 371kts
11-Jan-19 19:10 40.276418 -105.667513 66 16716ft 355kts
11-Jan-19 19:11 40.312794 -105.562879 65 16716ft 342kts
11-Jan-19 19:12 40.330969 -105.441392 103 16716ft 365kts
11-Jan-19 19:13 40.285133 -105.347972 138 16717ft 354kts
11-Jan-19 19:14 40.214030 -105.260079 139 16715ft 355kts
11-Jan-19 19:15 40.143666 -105.173614 139 16715ft 355kts
11-Jan-19 19:16 40.083865 -105.100143 139 16715ft 357kts
11-Jan-19 19:17 40.024966 -105.027755 139 16711ft 339kts
11-Jan-19 19:18 39.955694 -104.942771 138 16711ft 353kts
11-Jan-19 19:19 39.883924 -104.855523 139 16707ft 338kts
11-Jan-19 19:20 39.815929 -104.773104 138 16708ft 329kts
11-Jan-19 19:21 39.749589 -104.692820 138 16708ft 327kts
11-Jan-19 19:22 39.682550 -104.611702 138 16707ft 311kts
11-Jan-19 19:23 39.606158 -104.570209 177 15797ft 278kts
11-Jan-19 19:24 39.532932 -104.564667 177 14425ft 234kts
11-Jan-19 19:25 39.465215 -104.560309 177 12696ft 224kts
11-Jan-19 19:26 39.404641 -104.557007 177 12680ft 210kts
11-Jan-19 19:27 39.341845 -104.553414 177 12680ft 223kts
11-Jan-19 19:28 39.277252 -104.552218 200 12641ft 228kts
11-Jan-19 19:29 39.257466 -104.637527 267 10613ft 269kts
11-Jan-19 19:30 39.251173 -104.732290 267 8727ft 245kts
11-Jan-19 19:31 39.254429 -104.807811 323 8682ft 180kts
11-Jan-19 19:32 39.297658 -104.834449 349 8679ft 159kts
11-Jan-19 19:33 39.341511 -104.840067 356 8679ft 141kts
11-Jan-19 19:34 39.380068 -104.842202 357 8592ft 134kts
11-Jan-19 19:35 39.425596 -104.844215 355 7574ft 166kts
11-Jan-19 19:36 39.465220 -104.846082 355 7667ft 126kts
11-Jan-19 19:37 39.500842 -104.847561 355 7009ft 94kts
11-Jan-19 19:38 39.527539 -104.848846 354 6516ft 94kts
11-Jan-19 19:39 39.552206 -104.849914 219 5883ft 7kts
11-Jan-19 19:40 39.552215 -104.849904 224 5883ft 0kts
11-Jan-19 19:41 39.552215 -104.849904 224 5883ft 0kts

Navigation Log

Ident Type
Flight plan parsing failed, navigation log unavailable